Time;durP1;ratioP1;P1;durP2;ratioP2;P2;SDS_P1;SDS_P2;PMS_P1;PMS_P2;Temp;Humidity;BMP_temperature;BMP_pressure;BME280_temperature;BME280_humidity;BME280_pressure;Samples;Min_cycle;Max_cycle;Signal;HPM_P1;HPM_P2
2022/11/02 00:02:11;;;;;;;8.57;1.70;;;;;;;;;;5043551;28;20219;-63
2022/11/02 00:04:37;;;;;;;10.82;2.33;;;;;;;;;;5038408;28;20109;-63
2022/11/02 00:07:03;;;;;;;11.68;2.45;;;;;;;;;;5041385;28;20044;-63
2022/11/02 00:09:29;;;;;;;12.57;2.70;;;;;;;;;;5039772;28;20090;-63
2022/11/02 00:11:56;;;;;;;9.73;1.95;;;;;;;;;;5039402;28;20052;-63
2022/11/02 00:14:22;;;;;;;9.95;2.10;;;;;;;;;;5040162;28;20064;-63
2022/11/02 00:16:48;;;;;;;11.88;2.88;;;;;;;;;;5040155;28;20437;-63
2022/11/02 00:19:14;;;;;;;11.52;2.03;;;;;;;;;;5069883;28;20037;-63
2022/11/02 00:21:40;;;;;;;8.30;2.63;;;;;;;;;;5036892;28;20120;-64
2022/11/02 00:24:08;;;;;;;12.32;2.40;;;;;;;;;;5040300;28;20060;-63
2022/11/02 00:26:35;;;;;;;13.38;3.03;;;;;;;;;;5040354;28;20037;-63
2022/11/02 00:29:01;;;;;;;9.32;2.35;;;;;;;;;;5037797;28;20052;-62
2022/11/02 00:31:28;;;;;;;13.35;2.20;;;;;;;;;;5051816;28;20657;-63
2022/11/02 00:33:54;;;;;;;9.70;2.70;;;;;;;;;;5034103;28;20037;-63
2022/11/02 00:36:20;;;;;;;16.13;3.35;;;;;;;;;;5038828;28;20041;-63
2022/11/02 00:38:46;;;;;;;13.30;3.33;;;;;;;;;;5036590;28;20049;-63
2022/11/02 00:41:12;;;;;;;12.95;2.63;;;;;;;;;;5029375;28;20049;-63
2022/11/02 00:43:39;;;;;;;12.55;2.10;;;;;;;;;;5034517;28;20088;-63
2022/11/02 00:46:05;;;;;;;10.43;2.45;;;;;;;;;;5036723;28;20036;-63
2022/11/02 00:48:31;;;;;;;12.68;2.55;;;;;;;;;;5035034;28;20041;-63
2022/11/02 00:50:57;;;;;;;17.38;2.70;;;;;;;;;;5038240;28;20087;-63
2022/11/02 00:53:23;;;;;;;13.13;2.03;;;;;;;;;;5032320;28;20056;-63
2022/11/02 00:55:50;;;;;;;9.02;1.77;;;;;;;;;;5035490;28;20048;-64
2022/11/02 00:58:16;;;;;;;10.15;1.80;;;;;;;;;;5053202;28;20140;-63
2022/11/02 01:00:42;;;;;;;11.88;2.35;;;;;;;;;;5035092;28;20135;-63
2022/11/02 01:03:08;;;;;;;9.48;1.92;;;;;;;;;;5033931;28;20037;-63
2022/11/02 01:05:36;;;;;;;11.18;2.38;;;;;;;;;;5034389;28;20041;-63
2022/11/02 01:08:02;;;;;;;9.73;2.38;;;;;;;;;;5036584;28;20049;-63
2022/11/02 01:10:28;;;;;;;8.90;2.28;;;;;;;;;;5066860;28;20049;-63
2022/11/02 01:12:55;;;;;;;7.90;1.80;;;;;;;;;;5034779;28;20047;-63
2022/11/02 01:15:21;;;;;;;10.00;1.85;;;;;;;;;;5034895;28;20048;-63
2022/11/02 01:17:47;;;;;;;8.45;1.52;;;;;;;;;;5034159;28;20048;-62
2022/11/02 01:20:13;;;;;;;13.55;2.10;;;;;;;;;;5035556;28;20124;-63
2022/11/02 01:22:40;;;;;;;10.25;1.98;;;;;;;;;;5033186;28;20404;-63
2022/11/02 01:25:07;;;;;;;14.00;1.90;;;;;;;;;;5036075;28;20044;-63
2022/11/02 01:27:33;;;;;;;9.93;1.60;;;;;;;;;;5065131;28;20060;-62
2022/11/02 01:29:59;;;;;;;13.27;1.77;;;;;;;;;;5035086;28;20161;-62
2022/11/02 01:32:28;;;;;;;6.22;1.38;;;;;;;;;;5036621;28;20126;-62
2022/11/02 01:34:54;;;;;;;9.00;2.03;;;;;;;;;;5060379;28;20169;-63
2022/11/02 01:37:20;;;;;;;8.98;1.60;;;;;;;;;;5036547;28;20053;-63
2022/11/02 01:39:47;;;;;;;8.93;1.50;;;;;;;;;;5036474;28;20057;-62
2022/11/02 01:42:17;;;;;;;13.18;2.63;;;;;;;;;;5039581;28;20488;-63
2022/11/02 01:44:43;;;;;;;14.68;2.42;;;;;;;;;;5038100;28;20392;-62
2022/11/02 01:47:18;;;;;;;7.93;1.55;;;;;;;;;;5037094;28;20048;-62
2022/11/02 01:49:47;;;;;;;15.10;1.83;;;;;;;;;;5037960;28;20076;-62
2022/11/02 01:52:16;;;;;;;7.43;1.52;;;;;;;;;;5039288;28;20061;-63
2022/11/02 01:54:47;;;;;;;6.55;1.10;;;;;;;;;;5053027;28;20052;-63
2022/11/02 01:57:17;;;;;;;6.07;1.20;;;;;;;;;;5039382;28;20052;-62
2022/11/02 01:59:45;;;;;;;8.98;1.58;;;;;;;;;;5039437;28;20041;-62
2022/11/02 02:02:16;;;;;;;9.05;1.45;;;;;;;;;;5040901;28;20187;-63
2022/11/02 02:04:42;;;;;;;7.03;1.60;;;;;;;;;;5043683;28;20040;-63
2022/11/02 02:07:10;;;;;;;8.45;1.33;;;;;;;;;;5042840;28;20045;-63
2022/11/02 02:09:36;;;;;;;7.60;1.70;;;;;;;;;;5041601;28;20447;-62
2022/11/02 02:12:03;;;;;;;8.38;1.30;;;;;;;;;;5042567;28;20081;-63
2022/11/02 02:14:29;;;;;;;4.68;1.10;;;;;;;;;;5057934;28;20130;-63
2022/11/02 02:17:02;;;;;;;5.38;1.30;;;;;;;;;;5041675;28;20483;-63
2022/11/02 02:19:35;;;;;;;5.45;0.90;;;;;;;;;;5040480;28;20045;-63
2022/11/02 02:22:13;;;;;;;6.80;1.58;;;;;;;;;;5043468;28;20602;-63
2022/11/02 02:24:50;;;;;;;7.25;1.38;;;;;;;;;;5039788;28;20092;-62
2022/11/02 02:27:34;;;;;;;7.28;1.33;;;;;;;;;;5040262;28;20041;-63
2022/11/02 02:30:06;;;;;;;8.97;1.60;;;;;;;;;;5038826;28;20052;-62
2022/11/02 02:32:37;;;;;;;9.50;1.80;;;;;;;;;;5033660;28;20060;-63
2022/11/02 02:35:12;;;;;;;7.45;1.77;;;;;;;;;;5070329;28;20100;-62
2022/11/02 02:37:42;;;;;;;9.93;1.65;;;;;;;;;;5038602;28;20084;-62
2022/11/02 02:40:13;;;;;;;11.93;2.55;;;;;;;;;;5038089;28;20068;-63
2022/11/02 02:42:48;;;;;;;6.32;1.85;;;;;;;;;;5041587;28;20041;-63
2022/11/02 02:45:22;;;;;;;6.53;1.52;;;;;;;;;;5040408;28;20045;-62
2022/11/02 02:47:55;;;;;;;6.72;1.85;;;;;;;;;;5035953;28;20044;-62
2022/11/02 02:50:24;;;;;;;5.95;1.80;;;;;;;;;;5066424;28;20059;-62
2022/11/02 02:52:52;;;;;;;7.68;1.58;;;;;;;;;;5040462;28;20044;-62
2022/11/02 02:55:21;;;;;;;7.18;1.98;;;;;;;;;;5041321;28;20274;-62
2022/11/02 02:57:48;;;;;;;6.13;1.13;;;;;;;;;;5037362;28;20052;-62
2022/11/02 03:00:16;;;;;;;6.68;0.95;;;;;;;;;;5034034;28;20056;-62
2022/11/02 03:02:42;;;;;;;10.70;1.20;;;;;;;;;;5035855;28;20095;-63
2022/11/02 03:05:22;;;;;;;7.57;1.73;;;;;;;;;;5039439;28;20469;-62
2022/11/02 03:07:49;;;;;;;11.32;1.20;;;;;;;;;;5037846;28;21818;-62
2022/11/02 03:10:19;;;;;;;5.15;1.17;;;;;;;;;;5038550;28;20106;-62
2022/11/02 03:12:55;;;;;;;7.32;1.20;;;;;;;;;;5036084;28;20037;-62
2022/11/02 03:15:24;;;;;;;10.13;1.42;;;;;;;;;;5033729;28;20045;-62
2022/11/02 03:17:51;;;;;;;8.73;1.38;;;;;;;;;;5037997;28;20049;-62
2022/11/02 03:20:25;;;;;;;10.25;1.70;;;;;;;;;;5038226;28;20123;-62
2022/11/02 03:22:58;;;;;;;8.30;1.40;;;;;;;;;;5037580;28;20132;-62
2022/11/02 03:25:28;;;;;;;9.90;1.30;;;;;;;;;;5037038;28;20037;-62
2022/11/02 03:27:58;;;;;;;11.85;1.55;;;;;;;;;;5036603;28;20064;-62
2022/11/02 03:30:27;;;;;;;8.55;1.17;;;;;;;;;;5032636;28;20060;-62
2022/11/02 03:33:04;;;;;;;9.02;1.80;;;;;;;;;;5034739;28;20127;-62
2022/11/02 03:35:34;;;;;;;9.18;1.80;;;;;;;;;;5036087;28;20072;-63
2022/11/02 03:38:02;;;;;;;10.25;1.20;;;;;;;;;;5036201;28;20041;-63
2022/11/02 03:40:31;;;;;;;11.45;1.55;;;;;;;;;;5037624;28;20171;-63
2022/11/02 03:42:58;;;;;;;4.47;0.80;;;;;;;;;;5035280;28;20041;-63
2022/11/02 03:45:26;;;;;;;8.90;1.65;;;;;;;;;;5034203;28;20050;-63
2022/11/02 03:47:54;;;;;;;11.15;1.45;;;;;;;;;;5034579;28;20037;-63
2022/11/02 03:50:22;;;;;;;10.80;1.98;;;;;;;;;;5067584;28;20045;-63
2022/11/02 03:52:52;;;;;;;13.63;1.80;;;;;;;;;;5039503;28;20127;-62
2022/11/02 03:55:19;;;;;;;14.98;2.00;;;;;;;;;;5039192;28;20054;-63
2022/11/02 03:57:47;;;;;;;17.10;2.20;;;;;;;;;;5038442;28;20045;-62
2022/11/02 04:00:16;;;;;;;20.52;2.58;;;;;;;;;;5040967;28;20476;-63
2022/11/02 04:02:45;;;;;;;12.38;1.77;;;;;;;;;;5040439;28;21164;-62
2022/11/02 04:05:11;;;;;;;10.20;2.08;;;;;;;;;;5040113;28;20048;-63
2022/11/02 04:10:23;;;;;;;12.10;2.08;;;;;;;;;;5069770;28;20041;-62
2022/11/02 04:15:45;;;;;;;15.57;1.95;;;;;;;;;;5037095;28;20485;-63
2022/11/02 04:20:56;;;;;;;19.52;2.70;;;;;;;;;;5039847;28;20528;-63
2022/11/02 04:26:07;;;;;;;17.40;2.03;;;;;;;;;;5038985;28;20045;-63
2022/11/02 04:28:33;;;;;;;22.63;2.70;;;;;;;;;;5036584;28;20063;-63
2022/11/02 04:30:59;;;;;;;11.82;1.90;;;;;;;;;;5034305;28;20185;-63
2022/11/02 04:33:31;;;;;;;16.95;2.25;;;;;;;;;;5065494;28;20768;-63
2022/11/02 04:36:00;;;;;;;13.02;2.70;;;;;;;;;;5034730;28;20072;-63
2022/11/02 04:38:39;;;;;;;12.85;2.58;;;;;;;;;;5034204;28;20414;-62
2022/11/02 04:43:51;;;;;;;16.63;2.40;;;;;;;;;;5032410;28;21080;-62
2022/11/02 04:46:17;;;;;;;19.35;2.25;;;;;;;;;;5036202;28;20045;-63
2022/11/02 04:48:43;;;;;;;14.55;2.15;;;;;;;;;;5035227;28;20041;-63
2022/11/02 04:51:10;;;;;;;16.05;2.15;;;;;;;;;;5036257;28;20051;-62
2022/11/02 04:53:36;;;;;;;17.17;2.67;;;;;;;;;;5032835;28;20056;-63
2022/11/02 04:56:02;;;;;;;17.10;2.97;;;;;;;;;;5034192;28;20143;-63
2022/11/02 04:58:28;;;;;;;13.70;2.72;;;;;;;;;;5033040;28;20132;-63
2022/11/02 05:00:54;;;;;;;11.23;2.38;;;;;;;;;;5034150;28;20047;-63
2022/11/02 05:03:20;;;;;;;13.13;2.17;;;;;;;;;;5037479;28;20071;-63
2022/11/02 05:05:47;;;;;;;14.25;2.92;;;;;;;;;;5030745;28;20041;-63
2022/11/02 05:08:13;;;;;;;9.55;2.00;;;;;;;;;;5032457;28;20700;-63
2022/11/02 05:10:39;;;;;;;12.90;2.40;;;;;;;;;;5035714;28;20195;-63
2022/11/02 05:13:05;;;;;;;14.70;2.78;;;;;;;;;;5068157;28;20045;-63
2022/11/02 05:15:31;;;;;;;15.40;2.55;;;;;;;;;;5039850;28;20125;-63
2022/11/02 05:17:58;;;;;;;12.98;1.95;;;;;;;;;;5040327;28;20045;-63
2022/11/02 05:20:24;;;;;;;21.55;2.53;;;;;;;;;;5035026;28;20044;-63
2022/11/02 05:22:50;;;;;;;13.20;2.33;;;;;;;;;;5040847;28;20052;-63
2022/11/02 05:25:16;;;;;;;16.50;2.50;;;;;;;;;;5040490;28;20148;-63
2022/11/02 05:27:42;;;;;;;19.38;2.20;;;;;;;;;;5040483;28;20118;-63
2022/11/02 05:30:09;;;;;;;14.45;2.60;;;;;;;;;;5066357;28;20044;-64
2022/11/02 05:32:35;;;;;;;18.42;2.65;;;;;;;;;;5040326;28;20377;-65
2022/11/02 05:35:01;;;;;;;14.90;2.08;;;;;;;;;;5036962;28;20159;-63
2022/11/02 05:37:27;;;;;;;20.35;2.22;;;;;;;;;;5070783;28;20151;-63
2022/11/02 05:39:54;;;;;;;15.35;2.22;;;;;;;;;;5043222;28;20048;-63
2022/11/02 05:42:20;;;;;;;23.63;3.67;;;;;;;;;;5039183;28;20068;-63
2022/11/02 05:44:46;;;;;;;16.90;2.85;;;;;;;;;;5039538;28;20063;-63
2022/11/02 05:47:12;;;;;;;17.50;2.75;;;;;;;;;;5038802;28;20515;-63
2022/11/02 05:49:38;;;;;;;20.27;3.15;;;;;;;;;;5038439;28;20050;-63
2022/11/02 05:52:04;;;;;;;24.48;3.95;;;;;;;;;;5039964;28;20036;-63
2022/11/02 05:54:31;;;;;;;20.67;3.35;;;;;;;;;;5054605;28;20143;-63
2022/11/02 05:56:57;;;;;;;14.50;2.78;;;;;;;;;;5042360;28;20064;-63
2022/11/02 05:59:23;;;;;;;18.95;3.00;;;;;;;;;;5040419;28;20060;-63
2022/11/02 06:01:49;;;;;;;22.08;3.25;;;;;;;;;;5041250;28;20266;-64
2022/11/02 06:04:15;;;;;;;23.00;3.45;;;;;;;;;;5040006;28;20033;-63
2022/11/02 06:06:42;;;;;;;28.15;3.30;;;;;;;;;;5041249;28;20045;-64
2022/11/02 06:09:08;;;;;;;17.80;2.20;;;;;;;;;;5041150;28;20103;-64
2022/11/02 06:11:34;;;;;;;19.92;2.45;;;;;;;;;;5040453;28;20041;-64
2022/11/02 06:14:02;;;;;;;24.08;3.42;;;;;;;;;;5041207;28;20068;-64
2022/11/02 06:16:29;;;;;;;23.15;2.67;;;;;;;;;;5038430;28;20120;-64
2022/11/02 06:18:55;;;;;;;12.48;1.98;;;;;;;;;;5037668;28;20048;-64
2022/11/02 06:21:21;;;;;;;17.67;3.17;;;;;;;;;;5039631;28;20107;-64
2022/11/02 06:23:48;;;;;;;25.70;3.95;;;;;;;;;;5044324;28;20056;-63
2022/11/02 06:26:14;;;;;;;18.70;3.47;;;;;;;;;;5041304;28;20083;-63
2022/11/02 06:28:40;;;;;;;20.27;3.83;;;;;;;;;;5043338;28;20037;-63
2022/11/02 06:31:07;;;;;;;20.85;2.60;;;;;;;;;;5048414;28;20135;-63
2022/11/02 06:33:33;;;;;;;18.63;2.60;;;;;;;;;;5044647;28;20047;-64
2022/11/02 06:35:59;;;;;;;17.52;3.03;;;;;;;;;;5049655;28;20033;-63
2022/11/02 06:38:25;;;;;;;21.77;2.90;;;;;;;;;;5045375;28;20181;-63
2022/11/02 06:40:53;;;;;;;12.63;2.63;;;;;;;;;;5044254;28;20065;-64
2022/11/02 06:43:20;;;;;;;11.40;2.17;;;;;;;;;;5046730;28;20085;-64
2022/11/02 06:45:46;;;;;;;10.40;1.73;;;;;;;;;;5045657;28;20404;-64
2022/11/02 06:48:12;;;;;;;9.65;1.77;;;;;;;;;;5043158;28;20053;-63
2022/11/02 06:50:38;;;;;;;10.57;1.77;;;;;;;;;;5071427;28;20081;-63
2022/11/02 06:53:04;;;;;;;13.73;1.73;;;;;;;;;;5039896;28;20064;-64
2022/11/02 06:55:30;;;;;;;13.98;2.00;;;;;;;;;;5043035;28;20046;-63
2022/11/02 06:57:57;;;;;;;15.48;2.50;;;;;;;;;;5041489;28;20159;-63
2022/11/02 07:00:23;;;;;;;10.65;2.10;;;;;;;;;;5039931;28;20489;-63
2022/11/02 07:02:59;;;;;;;16.65;2.53;;;;;;;;;;5041318;28;20053;-64
2022/11/02 07:05:25;;;;;;;10.43;1.83;;;;;;;;;;5039429;28;20037;-64
2022/11/02 07:07:53;;;;;;;13.52;2.10;;;;;;;;;;5042636;28;20485;-64
2022/11/02 07:10:19;;;;;;;10.75;1.60;;;;;;;;;;5042032;28;20115;-64
2022/11/02 07:12:45;;;;;;;10.55;2.45;;;;;;;;;;5041370;28;20135;-63
2022/11/02 07:15:12;;;;;;;16.38;2.10;;;;;;;;;;5076087;28;20045;-64
2022/11/02 07:17:38;;;;;;;14.80;3.20;;;;;;;;;;5045171;28;20081;-65
2022/11/02 07:20:05;;;;;;;14.88;2.45;;;;;;;;;;5041520;28;20049;-64
2022/11/02 07:22:31;;;;;;;13.40;2.45;;;;;;;;;;5040915;28;20119;-65
2022/11/02 07:24:57;;;;;;;12.40;2.20;;;;;;;;;;5037350;28;20140;-64
2022/11/02 07:27:23;;;;;;;13.48;2.00;;;;;;;;;;5041012;28;20068;-64
2022/11/02 07:29:50;;;;;;;14.23;2.83;;;;;;;;;;5041179;28;20128;-64
2022/11/02 07:32:16;;;;;;;16.63;2.22;;;;;;;;;;5042546;28;20057;-64
2022/11/02 07:34:42;;;;;;;10.18;1.70;;;;;;;;;;5072234;28;20041;-64
2022/11/02 07:37:08;;;;;;;12.88;2.60;;;;;;;;;;5041022;28;20051;-64
2022/11/02 07:39:34;;;;;;;10.57;1.58;;;;;;;;;;5077094;28;20041;-64
2022/11/02 07:42:00;;;;;;;14.63;2.05;;;;;;;;;;5042682;28;20060;-64
2022/11/02 07:44:28;;;;;;;12.50;2.60;;;;;;;;;;5044863;28;20436;-64
2022/11/02 07:46:54;;;;;;;17.38;2.05;;;;;;;;;;5040505;28;20496;-64
2022/11/02 07:49:20;;;;;;;11.13;2.08;;;;;;;;;;5041141;28;20193;-64
2022/11/02 07:51:46;;;;;;;13.18;2.20;;;;;;;;;;5040907;28;20425;-64
2022/11/02 07:54:12;;;;;;;11.50;2.20;;;;;;;;;;5043181;28;20503;-64
2022/11/02 07:56:39;;;;;;;15.23;3.42;;;;;;;;;;5040027;28;20061;-65
2022/11/02 07:59:05;;;;;;;15.75;2.88;;;;;;;;;;5042477;28;20045;-65
2022/11/02 08:01:31;;;;;;;13.95;2.63;;;;;;;;;;5042973;28;20037;-65
2022/11/02 08:03:57;;;;;;;14.10;2.05;;;;;;;;;;5040663;28;20041;-65
2022/11/02 08:06:23;;;;;;;16.30;2.55;;;;;;;;;;5042981;28;20061;-64
2022/11/02 08:08:50;;;;;;;14.60;1.80;;;;;;;;;;5072493;28;20060;-65
2022/11/02 08:11:17;;;;;;;13.15;2.60;;;;;;;;;;5047086;28;20087;-65
2022/11/02 08:13:43;;;;;;;18.67;2.83;;;;;;;;;;5045480;28;20482;-65
2022/11/02 08:16:09;;;;;;;23.10;2.85;;;;;;;;;;5045849;28;20492;-65
2022/11/02 08:18:35;;;;;;;15.90;2.67;;;;;;;;;;5042086;28;20040;-65
2022/11/02 08:21:01;;;;;;;11.82;1.90;;;;;;;;;;5046187;28;20049;-64
2022/11/02 08:23:28;;;;;;;9.63;2.70;;;;;;;;;;5045236;28;20044;-65
2022/11/02 08:25:54;;;;;;;14.05;2.80;;;;;;;;;;5046106;28;20041;-65
2022/11/02 08:28:22;;;;;;;14.25;2.50;;;;;;;;;;5047125;28;20049;-64
2022/11/02 08:30:49;;;;;;;15.18;2.72;;;;;;;;;;5044738;28;20187;-64
2022/11/02 08:33:15;;;;;;;14.02;2.72;;;;;;;;;;5044585;28;20033;-65
2022/11/02 08:35:42;;;;;;;19.20;3.00;;;;;;;;;;5080877;28;20060;-65
2022/11/02 08:38:10;;;;;;;17.33;3.03;;;;;;;;;;5042792;28;20067;-64
2022/11/02 08:40:36;;;;;;;16.83;2.42;;;;;;;;;;5046988;28;20396;-65
2022/11/02 08:43:04;;;;;;;22.00;2.33;;;;;;;;;;5043533;28;20061;-65
2022/11/02 08:45:31;;;;;;;16.58;2.53;;;;;;;;;;5041598;28;20029;-64
2022/11/02 08:47:57;;;;;;;13.95;2.42;;;;;;;;;;5046812;28;20087;-65
2022/11/02 08:50:23;;;;;;;14.10;2.20;;;;;;;;;;5042207;28;20143;-65
2022/11/02 08:52:50;;;;;;;15.50;3.55;;;;;;;;;;5042743;28;20077;-65
2022/11/02 08:55:16;;;;;;;26.00;2.67;;;;;;;;;;5047323;28;20056;-65
2022/11/02 08:57:46;;;;;;;18.00;2.67;;;;;;;;;;5046924;28;20053;-64
2022/11/02 09:00:13;;;;;;;17.00;3.08;;;;;;;;;;5045819;28;20052;-64
2022/11/02 09:02:39;;;;;;;15.85;2.67;;;;;;;;;;5047835;28;20094;-64
2022/11/02 09:05:05;;;;;;;14.35;2.78;;;;;;;;;;5047101;28;20045;-64
2022/11/02 09:07:31;;;;;;;14.43;2.38;;;;;;;;;;5044161;28;20178;-64
2022/11/02 09:09:58;;;;;;;12.23;2.38;;;;;;;;;;5048452;28;20132;-64
2022/11/02 09:12:24;;;;;;;16.65;3.45;;;;;;;;;;5046070;28;20036;-65
2022/11/02 09:14:50;;;;;;;21.20;3.30;;;;;;;;;;5048277;28;20040;-64
2022/11/02 09:17:16;;;;;;;13.25;2.60;;;;;;;;;;5045771;28;20076;-64
2022/11/02 09:19:42;;;;;;;15.93;2.70;;;;;;;;;;5047941;28;20045;-64
2022/11/02 09:22:08;;;;;;;19.30;2.97;;;;;;;;;;5047726;28;20044;-64
2022/11/02 09:24:35;;;;;;;11.73;2.35;;;;;;;;;;5062249;28;20044;-64
2022/11/02 09:27:01;;;;;;;15.68;3.20;;;;;;;;;;5046153;28;20531;-64
2022/11/02 09:29:27;;;;;;;16.02;2.30;;;;;;;;;;5043534;28;20143;-64
2022/11/02 09:31:53;;;;;;;19.02;2.58;;;;;;;;;;5044105;28;20036;-64
2022/11/02 09:34:19;;;;;;;16.55;2.80;;;;;;;;;;5044143;28;20146;-64
2022/11/02 09:36:45;;;;;;;14.63;1.80;;;;;;;;;;5046485;28;20519;-64
2022/11/02 09:39:12;;;;;;;21.02;3.05;;;;;;;;;;5045661;28;20493;-64
2022/11/02 09:41:44;;;;;;;15.75;2.53;;;;;;;;;;5039799;28;20032;-64
2022/11/02 09:44:14;;;;;;;16.07;2.17;;;;;;;;;;5045695;28;20100;-64
2022/11/02 09:46:42;;;;;;;14.25;2.17;;;;;;;;;;5047433;28;20175;-64
2022/11/02 09:49:17;;;;;;;17.42;3.42;;;;;;;;;;5047265;28;20043;-65
2022/11/02 09:51:48;;;;;;;14.75;2.03;;;;;;;;;;5048394;28;20041;-64
2022/11/02 09:54:19;;;;;;;14.88;2.22;;;;;;;;;;5044071;28;20048;-64
2022/11/02 09:56:45;;;;;;;14.43;2.90;;;;;;;;;;5047089;28;20052;-64
2022/11/02 09:59:14;;;;;;;13.25;2.53;;;;;;;;;;5049847;28;20099;-65
2022/11/02 10:01:47;;;;;;;10.13;2.85;;;;;;;;;;5051642;28;20037;-65
2022/11/02 10:04:34;;;;;;;13.48;2.28;;;;;;;;;;5044489;28;20059;-65
2022/11/02 10:07:06;;;;;;;15.80;2.70;;;;;;;;;;5061000;28;20043;-65
2022/11/02 10:09:35;;;;;;;16.58;2.38;;;;;;;;;;5051752;28;20045;-65
2022/11/02 10:12:12;;;;;;;10.70;2.53;;;;;;;;;;5039208;28;20103;-65
2022/11/02 10:14:45;;;;;;;14.23;2.90;;;;;;;;;;5054468;28;20048;-64
2022/11/02 10:17:14;;;;;;;14.82;3.20;;;;;;;;;;5056674;28;20128;-65
2022/11/02 10:19:44;;;;;;;16.98;2.70;;;;;;;;;;5048654;28;20072;-64
2022/11/02 10:22:12;;;;;;;12.73;2.22;;;;;;;;;;5043687;28;20042;-65
2022/11/02 10:24:42;;;;;;;18.27;2.78;;;;;;;;;;5047687;28;20048;-64
2022/11/02 10:27:14;;;;;;;13.82;2.33;;;;;;;;;;5047248;28;20033;-64
2022/11/02 10:29:59;;;;;;;14.98;2.63;;;;;;;;;;5045659;28;20141;-65
2022/11/02 10:32:25;;;;;;;21.50;2.22;;;;;;;;;;5048065;28;20052;-65
2022/11/02 10:34:52;;;;;;;18.88;2.47;;;;;;;;;;5043464;28;20132;-65
2022/11/02 10:37:28;;;;;;;14.63;2.65;;;;;;;;;;5042469;28;20136;-65
2022/11/02 10:39:55;;;;;;;10.88;2.35;;;;;;;;;;5047220;28;20041;-65
2022/11/02 10:42:32;;;;;;;13.15;2.17;;;;;;;;;;5044564;28;20106;-64
2022/11/02 10:44:59;;;;;;;11.57;2.00;;;;;;;;;;5078714;28;20135;-65
2022/11/02 10:47:26;;;;;;;17.95;2.97;;;;;;;;;;5043991;28;20041;-65
2022/11/02 10:49:59;;;;;;;15.38;2.83;;;;;;;;;;5046678;28;20060;-65
2022/11/02 10:52:29;;;;;;;13.43;2.65;;;;;;;;;;5039959;28;20041;-65
2022/11/02 10:54:55;;;;;;;10.23;1.83;;;;;;;;;;5045805;28;20056;-66
2022/11/02 10:57:23;;;;;;;8.85;2.13;;;;;;;;;;5039761;28;20040;-66
2022/11/02 11:00:10;;;;;;;8.60;2.03;;;;;;;;;;5041797;28;20049;-65
2022/11/02 11:02:36;;;;;;;10.32;2.00;;;;;;;;;;5073842;28;20120;-66
2022/11/02 11:05:13;;;;;;;14.88;2.72;;;;;;;;;;5045949;28;20033;-66
2022/11/02 11:07:43;;;;;;;11.18;1.98;;;;;;;;;;5045789;28;20041;-66
2022/11/02 11:10:15;;;;;;;15.15;1.83;;;;;;;;;;5045507;28;20040;-66
2022/11/02 11:12:43;;;;;;;12.20;2.10;;;;;;;;;;5041977;28;20049;-66
2022/11/02 11:15:19;;;;;;;12.10;1.88;;;;;;;;;;5077221;28;20048;-66
2022/11/02 11:17:46;;;;;;;11.15;2.28;;;;;;;;;;5045452;28;20056;-66
2022/11/02 11:20:34;;;;;;;13.43;2.78;;;;;;;;;;5041935;28;20052;-66
2022/11/02 11:23:08;;;;;;;10.20;1.92;;;;;;;;;;5042694;28;20114;-66
2022/11/02 11:25:34;;;;;;;;;;;;;;;;;;5045394;28;20506;-66
2022/11/02 11:28:00;;;;;;;13.07;2.00;;;;;;;;;;5044142;28;20459;-66
2022/11/02 11:30:28;;;;;;;9.48;2.38;;;;;;;;;;5044538;28;20051;-66
2022/11/02 11:32:55;;;;;;;17.33;2.10;;;;;;;;;;5045769;28;20041;-66
2022/11/02 11:35:22;;;;;;;10.18;2.17;;;;;;;;;;5045014;28;20121;-66
2022/11/02 11:37:51;;;;;;;12.35;1.95;;;;;;;;;;5046059;28;20041;-66
2022/11/02 11:40:19;;;;;;;12.27;2.50;;;;;;;;;;5042942;28;20051;-66
2022/11/02 11:42:48;;;;;;;12.73;2.05;;;;;;;;;;5042802;28;20041;-66
2022/11/02 11:45:20;;;;;;;10.40;2.05;;;;;;;;;;5043663;28;20042;-66
2022/11/02 11:47:50;;;;;;;12.95;1.80;;;;;;;;;;5039300;28;20053;-66
2022/11/02 11:50:17;;;;;;;11.32;2.33;;;;;;;;;;5045045;28;20041;-66
2022/11/02 11:52:43;;;;;;;10.32;2.25;;;;;;;;;;5042410;28;20067;-66
2022/11/02 11:55:20;;;;;;;14.88;2.28;;;;;;;;;;5042586;28;20116;-66
2022/11/02 11:58:03;;;;;;;11.00;1.85;;;;;;;;;;5041970;28;20130;-66
2022/11/02 12:00:29;;;;;;;16.40;3.20;;;;;;;;;;5040747;28;20037;-66
2022/11/02 12:03:04;;;;;;;14.13;2.15;;;;;;;;;;5040558;28;20135;-66
2022/11/02 12:05:32;;;;;;;10.75;2.22;;;;;;;;;;5040864;28;20045;-66
2022/11/02 12:08:05;;;;;;;16.88;2.13;;;;;;;;;;5043928;28;20048;-66
2022/11/02 12:10:31;;;;;;;11.73;2.30;;;;;;;;;;5041743;28;20063;-66
2022/11/02 12:13:07;;;;;;;13.85;2.58;;;;;;;;;;5041427;28;20513;-66
2022/11/02 12:15:45;;;;;;;16.08;2.72;;;;;;;;;;5037566;28;20479;-66
2022/11/02 12:18:21;;;;;;;14.23;2.65;;;;;;;;;;5040054;28;20057;-66
2022/11/02 12:21:06;;;;;;;13.85;2.35;;;;;;;;;;5038343;28;20041;-66
2022/11/02 12:23:40;;;;;;;13.18;2.83;;;;;;;;;;5041096;28;20045;-66
2022/11/02 12:26:17;;;;;;;11.20;2.25;;;;;;;;;;5043196;28;20045;-66
2022/11/02 12:28:49;;;;;;;17.33;1.92;;;;;;;;;;5043717;28;20037;-66
2022/11/02 12:31:28;;;;;;;12.75;2.88;;;;;;;;;;5041621;28;20128;-66
2022/11/02 12:33:59;;;;;;;8.65;2.05;;;;;;;;;;5042340;28;20052;-66
2022/11/02 12:36:25;;;;;;;11.40;1.73;;;;;;;;;;5043350;28;20045;-66
2022/11/02 12:38:58;;;;;;;18.08;2.55;;;;;;;;;;5043912;28;20072;-66
2022/11/02 12:41:31;;;;;;;17.58;2.88;;;;;;;;;;5045643;28;20060;-64
2022/11/02 12:44:04;;;;;;;13.10;2.70;;;;;;;;;;5044537;28;20125;-65
2022/11/02 12:46:35;;;;;;;15.70;2.75;;;;;;;;;;5045698;28;20112;-65
2022/11/02 12:49:19;;;;;;;12.40;2.53;;;;;;;;;;5041134;28;20045;-65
2022/11/02 12:52:00;;;;;;;14.30;3.28;;;;;;;;;;5041175;28;20037;-65
2022/11/02 12:54:29;;;;;;;13.95;2.53;;;;;;;;;;5042261;28;20147;-65
2022/11/02 12:56:55;;;;;;;19.38;2.60;;;;;;;;;;5043680;28;20067;-65
2022/11/02 12:59:26;;;;;;;13.63;2.50;;;;;;;;;;5040097;28;20461;-64
2022/11/02 13:01:55;;;;;;;11.63;2.10;;;;;;;;;;5041766;28;20404;-64
2022/11/02 13:04:28;;;;;;;16.50;3.05;;;;;;;;;;5041429;28;20077;-64
2022/11/02 13:06:59;;;;;;;12.05;2.17;;;;;;;;;;5043075;28;20195;-64
2022/11/02 13:09:29;;;;;;;13.57;2.53;;;;;;;;;;5038344;28;20053;-64
2022/11/02 13:12:00;;;;;;;10.88;2.33;;;;;;;;;;5041585;28;20442;-64
2022/11/02 13:14:28;;;;;;;11.18;1.85;;;;;;;;;;5044730;28;20041;-64
2022/11/02 13:17:03;;;;;;;15.63;2.67;;;;;;;;;;5070868;28;20119;-64
2022/11/02 13:19:38;;;;;;;10.40;2.33;;;;;;;;;;5042936;28;20041;-64
2022/11/02 13:22:07;;;;;;;14.23;2.25;;;;;;;;;;5044283;28;20041;-64
2022/11/02 13:24:37;;;;;;;17.00;2.92;;;;;;;;;;5043061;28;20073;-64
2022/11/02 13:27:05;;;;;;;12.10;1.90;;;;;;;;;;5040654;28;20484;-64
2022/11/02 13:29:31;;;;;;;10.70;2.08;;;;;;;;;;5043995;28;20369;-64
2022/11/02 13:32:03;;;;;;;13.65;2.47;;;;;;;;;;5042477;28;20531;-64
2022/11/02 13:34:35;;;;;;;14.18;2.15;;;;;;;;;;5046635;28;20056;-62
2022/11/02 13:37:05;;;;;;;16.02;3.65;;;;;;;;;;5045698;28;20057;-74
2022/11/02 13:39:36;;;;;;;12.20;1.98;;;;;;;;;;5048538;28;20040;-63
2022/11/02 13:42:20;;;;;;;15.32;2.80;;;;;;;;;;5039501;28;20533;-63
2022/11/02 13:44:58;;;;;;;13.48;3.05;;;;;;;;;;5044004;28;20065;-63
2022/11/02 13:47:27;;;;;;;13.15;2.67;;;;;;;;;;5048836;28;20389;-63
2022/11/02 13:49:55;;;;;;;14.70;2.45;;;;;;;;;;5073084;28;20071;-63
2022/11/02 13:52:26;;;;;;;11.32;2.15;;;;;;;;;;5049895;28;20498;-63
2022/11/02 13:54:55;;;;;;;11.30;1.95;;;;;;;;;;5070176;28;20140;-63
2022/11/02 13:57:31;;;;;;;14.65;2.33;;;;;;;;;;5039850;28;20110;-64
2022/11/02 13:59:58;;;;;;;11.55;2.33;;;;;;;;;;5069790;28;20125;-64
2022/11/02 14:02:25;;;;;;;13.38;2.42;;;;;;;;;;5042042;28;20046;-64
2022/11/02 14:04:51;;;;;;;14.75;2.80;;;;;;;;;;5044470;28;20071;-64
2022/11/02 14:07:23;;;;;;;10.63;2.30;;;;;;;;;;5073755;28;20047;-64
2022/11/02 14:09:49;;;;;;;16.65;2.33;;;;;;;;;;5040089;28;20033;-64
2022/11/02 14:12:16;;;;;;;12.40;2.40;;;;;;;;;;5073268;28;20099;-62
2022/11/02 14:14:43;;;;;;;15.60;3.95;;;;;;;;;;5042736;28;20051;-64
2022/11/02 14:17:11;;;;;;;11.88;2.08;;;;;;;;;;5042517;28;20052;-62
2022/11/02 14:19:43;;;;;;;11.80;1.92;;;;;;;;;;5040445;28;20053;-64
2022/11/02 14:22:11;;;;;;;12.77;2.63;;;;;;;;;;5043035;28;20479;-61
2022/11/02 14:24:38;;;;;;;13.15;2.50;;;;;;;;;;5044535;28;20510;-62
2022/11/02 14:27:11;;;;;;;11.55;2.72;;;;;;;;;;5040697;28;20151;-62
2022/11/02 14:29:43;;;;;;;12.75;1.92;;;;;;;;;;5043126;28;20075;-62
2022/11/02 14:32:19;;;;;;;15.93;2.53;;;;;;;;;;5037025;28;20757;-62
2022/11/02 14:34:59;;;;;;;11.57;2.13;;;;;;;;;;5040653;28;20049;-62
2022/11/02 14:37:51;;;;;;;16.60;2.50;;;;;;;;;;5036870;28;20060;-62
2022/11/02 14:40:24;;;;;;;8.98;2.40;;;;;;;;;;5042089;28;20044;-61
2022/11/02 14:42:58;;;;;;;16.50;3.10;;;;;;;;;;5039642;28;20049;-62
2022/11/02 14:45:28;;;;;;;13.07;2.63;;;;;;;;;;5040348;28;20165;-68
2022/11/02 14:47:56;;;;;;;12.80;2.80;;;;;;;;;;5042678;28;20057;-62
2022/11/02 14:50:22;;;;;;;16.30;2.60;;;;;;;;;;5041234;28;20044;-62
2022/11/02 14:52:57;;;;;;;14.18;2.10;;;;;;;;;;5042978;28;20051;-62
2022/11/02 14:55:26;;;;;;;12.93;2.10;;;;;;;;;;5043117;28;20080;-61
2022/11/02 14:57:54;;;;;;;14.75;2.15;;;;;;;;;;5044543;28;20049;-59